sensor_id;sensor_type;location;lat;lon;timestamp;pressure;altitude;pressure_sealevel;temperature;humidity
498;BME280;39559;48.630;9.162;2022-09-16T00:00:15;96933.47;;;9.81;100.00
498;BME280;39559;48.630;9.162;2022-09-16T00:02:41;96931.00;;;9.78;100.00
498;BME280;39559;48.630;9.162;2022-09-16T00:07:09;96930.88;;;9.98;100.00
498;BME280;39559;48.630;9.162;2022-09-16T00:09:36;96931.19;;;9.92;100.00
498;BME280;39559;48.630;9.162;2022-09-16T00:12:04;96927.75;;;9.92;100.00
498;BME280;39559;48.630;9.162;2022-09-16T00:14:29;96913.09;;;9.91;100.00
498;BME280;39559;48.630;9.162;2022-09-16T00:16:55;96918.53;;;10.04;100.00
498;BME280;39559;48.630;9.162;2022-09-16T00:19:20;96917.56;;;10.06;100.00
498;BME280;39559;48.630;9.162;2022-09-16T00:21:47;96911.88;;;9.98;100.00
498;BME280;39559;48.630;9.162;2022-09-16T00:24:14;96913.28;;;9.88;100.00
498;BME280;39559;48.630;9.162;2022-09-16T00:26:41;96901.59;;;9.79;100.00
498;BME280;39559;48.630;9.162;2022-09-16T00:31:07;96915.63;;;9.92;100.00
498;BME280;39559;48.630;9.162;2022-09-16T00:33:33;96916.63;;;9.90;100.00
498;BME280;39559;48.630;9.162;2022-09-16T00:36:06;96914.31;;;9.84;100.00
498;BME280;39559;48.630;9.162;2022-09-16T00:38:32;96918.91;;;9.96;100.00
498;BME280;39559;48.630;9.162;2022-09-16T00:40:57;96910.81;;;10.02;100.00
498;BME280;39559;48.630;9.162;2022-09-16T00:43:23;96919.53;;;10.01;100.00
498;BME280;39559;48.630;9.162;2022-09-16T00:45:56;96918.06;;;9.95;100.00
498;BME280;39559;48.630;9.162;2022-09-16T00:48:24;96924.41;;;9.90;100.00
498;BME280;39559;48.630;9.162;2022-09-16T00:50:58;96921.56;;;9.94;100.00
498;BME280;39559;48.630;9.162;2022-09-16T00:55:07;96923.53;;;9.89;100.00
498;BME280;39559;48.630;9.162;2022-09-16T00:57:33;96934.09;;;9.86;100.00
498;BME280;39559;48.630;9.162;2022-09-16T00:59:59;96934.03;;;9.88;100.00
498;BME280;39559;48.630;9.162;2022-09-16T01:02:26;96935.75;;;9.87;100.00
498;BME280;39559;48.630;9.162;2022-09-16T01:04:58;96943.31;;;9.92;100.00
498;BME280;39559;48.630;9.162;2022-09-16T01:07:38;96938.97;;;9.92;100.00
498;BME280;39559;48.630;9.162;2022-09-16T01:10:06;96926.25;;;9.88;100.00
498;BME280;39559;48.630;9.162;2022-09-16T01:12:33;96926.59;;;9.80;100.00
498;BME280;39559;48.630;9.162;2022-09-16T01:15:01;96921.47;;;9.78;100.00
498;BME280;39559;48.630;9.162;2022-09-16T01:19:10;96930.13;;;9.79;100.00
498;BME280;39559;48.630;9.162;2022-09-16T01:24:14;96928.50;;;9.76;100.00
498;BME280;39559;48.630;9.162;2022-09-16T01:27:06;96919.41;;;9.68;100.00
498;BME280;39559;48.630;9.162;2022-09-16T01:32:57;96916.97;;;9.82;100.00
498;BME280;39559;48.630;9.162;2022-09-16T01:35:32;96919.81;;;9.77;100.00
498;BME280;39559;48.630;9.162;2022-09-16T01:45:55;96920.25;;;9.68;100.00
498;BME280;39559;48.630;9.162;2022-09-16T01:53:38;96917.78;;;9.84;100.00
498;BME280;39559;48.630;9.162;2022-09-16T01:56:23;96918.84;;;9.97;100.00
498;BME280;39559;48.630;9.162;2022-09-16T01:59:18;96924.00;;;9.80;100.00
498;BME280;39559;48.630;9.162;2022-09-16T02:01:54;96921.91;;;9.69;100.00
498;BME280;39559;48.630;9.162;2022-09-16T02:07:01;96902.03;;;10.22;100.00
498;BME280;39559;48.630;9.162;2022-09-16T02:09:32;96925.69;;;9.81;100.00
498;BME280;39559;48.630;9.162;2022-09-16T02:12:03;96937.72;;;9.82;100.00
498;BME280;39559;48.630;9.162;2022-09-16T02:14:35;96930.00;;;9.63;100.00
498;BME280;39559;48.630;9.162;2022-09-16T02:17:08;96933.09;;;9.52;100.00
498;BME280;39559;48.630;9.162;2022-09-16T02:19:41;96930.06;;;9.61;100.00
498;BME280;39559;48.630;9.162;2022-09-16T02:22:13;96927.97;;;9.70;100.00
498;BME280;39559;48.630;9.162;2022-09-16T02:24:42;96927.78;;;9.73;100.00
498;BME280;39559;48.630;9.162;2022-09-16T02:27:14;96924.75;;;9.82;100.00
498;BME280;39559;48.630;9.162;2022-09-16T02:30:59;96924.03;;;9.97;100.00
498;BME280;39559;48.630;9.162;2022-09-16T02:33:39;96923.03;;;10.00;100.00
498;BME280;39559;48.630;9.162;2022-09-16T02:36:07;96918.81;;;9.80;100.00
498;BME280;39559;48.630;9.162;2022-09-16T02:38:40;96930.69;;;9.67;100.00
498;BME280;39559;48.630;9.162;2022-09-16T02:41:08;96915.13;;;9.67;100.00
498;BME280;39559;48.630;9.162;2022-09-16T02:43:40;96916.34;;;9.59;100.00
498;BME280;39559;48.630;9.162;2022-09-16T02:57:22;96912.84;;;9.60;100.00
498;BME280;39559;48.630;9.162;2022-09-16T02:59:48;96907.50;;;9.64;100.00
498;BME280;39559;48.630;9.162;2022-09-16T03:02:14;96914.66;;;9.58;100.00
498;BME280;39559;48.630;9.162;2022-09-16T03:04:40;96907.44;;;9.65;100.00
498;BME280;39559;48.630;9.162;2022-09-16T03:07:08;96907.94;;;9.54;100.00
498;BME280;39559;48.630;9.162;2022-09-16T03:09:38;96920.22;;;9.51;100.00
498;BME280;39559;48.630;9.162;2022-09-16T03:12:08;96923.28;;;9.59;100.00
498;BME280;39559;48.630;9.162;2022-09-16T03:24:44;96910.13;;;9.81;100.00
498;BME280;39559;48.630;9.162;2022-09-16T03:27:50;96904.50;;;9.90;100.00
498;BME280;39559;48.630;9.162;2022-09-16T03:30:17;96911.19;;;9.94;100.00
498;BME280;39559;48.630;9.162;2022-09-16T03:32:48;96911.44;;;9.90;100.00
498;BME280;39559;48.630;9.162;2022-09-16T03:35:37;96908.75;;;9.91;100.00
498;BME280;39559;48.630;9.162;2022-09-16T03:38:05;96903.50;;;9.93;100.00
498;BME280;39559;48.630;9.162;2022-09-16T03:42:50;96898.31;;;9.93;100.00
498;BME280;39559;48.630;9.162;2022-09-16T03:45:19;96887.84;;;9.94;100.00
498;BME280;39559;48.630;9.162;2022-09-16T03:47:46;96888.16;;;10.06;100.00
498;BME280;39559;48.630;9.162;2022-09-16T03:50:12;96883.91;;;10.05;100.00
498;BME280;39559;48.630;9.162;2022-09-16T03:52:38;96886.41;;;10.06;100.00
498;BME280;39559;48.630;9.162;2022-09-16T03:55:05;96890.00;;;10.04;100.00
498;BME280;39559;48.630;9.162;2022-09-16T03:57:31;96890.59;;;10.09;100.00
498;BME280;39559;48.630;9.162;2022-09-16T03:59:57;96887.00;;;10.11;100.00
498;BME280;39559;48.630;9.162;2022-09-16T04:02:22;96892.19;;;10.11;100.00
498;BME280;39559;48.630;9.162;2022-09-16T04:06:48;96889.53;;;10.13;100.00
498;BME280;39559;48.630;9.162;2022-09-16T04:09:14;96895.66;;;10.12;100.00
498;BME280;39559;48.630;9.162;2022-09-16T04:11:41;96889.22;;;10.19;100.00
498;BME280;39559;48.630;9.162;2022-09-16T04:14:07;96891.22;;;10.14;100.00
498;BME280;39559;48.630;9.162;2022-09-16T04:16:33;96890.38;;;10.13;100.00
498;BME280;39559;48.630;9.162;2022-09-16T04:18:59;96892.88;;;10.15;100.00
498;BME280;39559;48.630;9.162;2022-09-16T04:21:24;96884.56;;;10.26;100.00
498;BME280;39559;48.630;9.162;2022-09-16T04:23:50;96886.09;;;10.30;100.00
498;BME280;39559;48.630;9.162;2022-09-16T04:26:16;96884.97;;;10.35;100.00
498;BME280;39559;48.630;9.162;2022-09-16T04:30:46;96884.41;;;10.29;100.00
498;BME280;39559;48.630;9.162;2022-09-16T04:33:12;96878.84;;;10.36;100.00
498;BME280;39559;48.630;9.162;2022-09-16T04:35:37;96872.75;;;10.37;100.00
498;BME280;39559;48.630;9.162;2022-09-16T04:38:03;96867.63;;;10.36;100.00
498;BME280;39559;48.630;9.162;2022-09-16T04:40:29;96866.63;;;10.38;100.00
498;BME280;39559;48.630;9.162;2022-09-16T04:42:55;96866.72;;;10.37;100.00
498;BME280;39559;48.630;9.162;2022-09-16T04:45:20;96869.41;;;10.35;100.00
498;BME280;39559;48.630;9.162;2022-09-16T04:47:46;96861.06;;;10.46;100.00
498;BME280;39559;48.630;9.162;2022-09-16T04:50:11;96862.22;;;10.41;100.00
498;BME280;39559;48.630;9.162;2022-09-16T04:54:47;96861.13;;;10.45;100.00
498;BME280;39559;48.630;9.162;2022-09-16T04:57:13;96868.91;;;10.45;100.00
498;BME280;39559;48.630;9.162;2022-09-16T04:59:38;96865.63;;;10.41;100.00
498;BME280;39559;48.630;9.162;2022-09-16T05:02:04;96865.72;;;10.40;100.00
498;BME280;39559;48.630;9.162;2022-09-16T05:04:30;96855.69;;;10.49;100.00
498;BME280;39559;48.630;9.162;2022-09-16T05:06:55;96855.78;;;10.48;100.00
498;BME280;39559;48.630;9.162;2022-09-16T05:09:21;96855.69;;;10.49;100.00
498;BME280;39559;48.630;9.162;2022-09-16T05:11:47;96855.78;;;10.48;100.00
498;BME280;39559;48.630;9.162;2022-09-16T05:14:14;96861.88;;;10.47;100.00
498;BME280;39559;48.630;9.162;2022-09-16T05:18:44;96865.75;;;10.55;100.00
498;BME280;39559;48.630;9.162;2022-09-16T05:21:13;96870.09;;;10.55;100.00
498;BME280;39559;48.630;9.162;2022-09-16T05:23:40;96875.28;;;10.55;100.00
498;BME280;39559;48.630;9.162;2022-09-16T05:26:08;96885.03;;;10.51;100.00
498;BME280;39559;48.630;9.162;2022-09-16T05:28:35;96882.16;;;10.56;100.00
498;BME280;39559;48.630;9.162;2022-09-16T05:33:40;96895.00;;;10.59;100.00
498;BME280;39559;48.630;9.162;2022-09-16T05:36:16;96902.16;;;10.71;100.00
498;BME280;39559;48.630;9.162;2022-09-16T05:38:44;96889.50;;;10.81;100.00
498;BME280;39559;48.630;9.162;2022-09-16T05:42:41;96888.00;;;10.77;100.00
498;BME280;39559;48.630;9.162;2022-09-16T05:45:07;96877.59;;;10.61;100.00
498;BME280;39559;48.630;9.162;2022-09-16T05:47:32;96872.13;;;10.66;100.00
498;BME280;39559;48.630;9.162;2022-09-16T05:49:58;96877.16;;;10.69;100.00
498;BME280;39559;48.630;9.162;2022-09-16T05:52:23;96877.78;;;10.74;100.00
498;BME280;39559;48.630;9.162;2022-09-16T05:54:49;96882.69;;;10.79;100.00
498;BME280;39559;48.630;9.162;2022-09-16T05:57:15;96889.59;;;10.80;100.00
498;BME280;39559;48.630;9.162;2022-09-16T05:59:40;96891.09;;;10.84;100.00
498;BME280;39559;48.630;9.162;2022-09-16T06:02:07;96885.81;;;10.85;100.00
498;BME280;39559;48.630;9.162;2022-09-16T06:06:41;96899.50;;;10.89;100.00
498;BME280;39559;48.630;9.162;2022-09-16T06:09:22;96898.13;;;10.82;100.00
498;BME280;39559;48.630;9.162;2022-09-16T06:11:51;96903.25;;;10.83;100.00
498;BME280;39559;48.630;9.162;2022-09-16T06:14:17;96898.88;;;10.84;100.00
498;BME280;39559;48.630;9.162;2022-09-16T06:16:44;96892.81;;;10.67;100.00
498;BME280;39559;48.630;9.162;2022-09-16T06:19:13;96892.53;;;10.73;100.00
498;BME280;39559;48.630;9.162;2022-09-16T06:21:40;96881.72;;;10.81;100.00
498;BME280;39559;48.630;9.162;2022-09-16T06:24:08;96886.09;;;10.97;100.00
498;BME280;39559;48.630;9.162;2022-09-16T06:26:39;96882.06;;;10.91;100.00
498;BME280;39559;48.630;9.162;2022-09-16T06:30:38;96890.94;;;10.87;100.00
498;BME280;39559;48.630;9.162;2022-09-16T06:33:03;96898.75;;;10.87;100.00
498;BME280;39559;48.630;9.162;2022-09-16T06:35:29;96898.50;;;10.91;100.00
498;BME280;39559;48.630;9.162;2022-09-16T06:37:55;96895.03;;;10.91;100.00
498;BME280;39559;48.630;9.162;2022-09-16T06:40:21;96897.50;;;10.94;100.00
498;BME280;39559;48.630;9.162;2022-09-16T06:42:46;96888.69;;;10.97;100.00
498;BME280;39559;48.630;9.162;2022-09-16T06:45:12;96898.63;;;10.72;100.00
498;BME280;39559;48.630;9.162;2022-09-16T06:47:37;96896.72;;;10.76;100.00
498;BME280;39559;48.630;9.162;2022-09-16T06:50:04;96898.09;;;10.66;100.00
498;BME280;39559;48.630;9.162;2022-09-16T06:54:34;96893.72;;;10.50;100.00
498;BME280;39559;48.630;9.162;2022-09-16T06:57:00;96892.34;;;10.61;100.00
498;BME280;39559;48.630;9.162;2022-09-16T06:59:25;96893.59;;;10.69;100.00
498;BME280;39559;48.630;9.162;2022-09-16T07:01:51;96892.91;;;10.66;100.00
498;BME280;39559;48.630;9.162;2022-09-16T07:04:17;96898.78;;;10.69;100.00
498;BME280;39559;48.630;9.162;2022-09-16T07:06:42;96905.75;;;10.69;100.00
498;BME280;39559;48.630;9.162;2022-09-16T07:09:10;96901.69;;;10.63;100.00
498;BME280;39559;48.630;9.162;2022-09-16T07:11:35;96900.88;;;10.63;100.00
498;BME280;39559;48.630;9.162;2022-09-16T07:14:01;96904.16;;;10.66;100.00
498;BME280;39559;48.630;9.162;2022-09-16T07:18:33;96901.97;;;10.74;100.00
498;BME280;39559;48.630;9.162;2022-09-16T07:21:21;96914.81;;;10.78;100.00
498;BME280;39559;48.630;9.162;2022-09-16T07:23:49;96927.13;;;10.74;100.00
498;BME280;39559;48.630;9.162;2022-09-16T07:26:17;96924.44;;;10.75;100.00
498;BME280;39559;48.630;9.162;2022-09-16T07:28:44;96926.59;;;10.67;100.00
498;BME280;39559;48.630;9.162;2022-09-16T07:31:37;96926.72;;;10.48;100.00
498;BME280;39559;48.630;9.162;2022-09-16T07:34:05;96925.50;;;10.38;100.00
498;BME280;39559;48.630;9.162;2022-09-16T07:36:41;96916.81;;;10.39;100.00
498;BME280;39559;48.630;9.162;2022-09-16T07:39:08;96917.47;;;10.43;100.00
498;BME280;39559;48.630;9.162;2022-09-16T07:42:30;96926.78;;;10.47;100.00
498;BME280;39559;48.630;9.162;2022-09-16T07:44:56;96924.50;;;10.41;100.00
498;BME280;39559;48.630;9.162;2022-09-16T07:47:21;96931.13;;;10.29;100.00
498;BME280;39559;48.630;9.162;2022-09-16T07:49:47;96924.59;;;10.39;100.00
498;BME280;39559;48.630;9.162;2022-09-16T07:52:13;96920.69;;;10.48;100.00
498;BME280;39559;48.630;9.162;2022-09-16T07:54:40;96923.09;;;10.51;100.00
498;BME280;39559;48.630;9.162;2022-09-16T07:57:06;96928.06;;;10.55;100.00
498;BME280;39559;48.630;9.162;2022-09-16T07:59:31;96932.72;;;10.49;100.00
498;BME280;39559;48.630;9.162;2022-09-16T08:01:57;96939.97;;;10.60;100.00
498;BME280;39559;48.630;9.162;2022-09-16T08:06:31;96947.00;;;10.57;100.00
498;BME280;39559;48.630;9.162;2022-09-16T08:08:59;96944.13;;;10.46;100.00
498;BME280;39559;48.630;9.162;2022-09-16T08:11:26;96944.41;;;10.57;100.00
498;BME280;39559;48.630;9.162;2022-09-16T08:13:52;96961.06;;;10.53;100.00
498;BME280;39559;48.630;9.162;2022-09-16T08:16:20;96952.97;;;10.42;100.00
498;BME280;39559;48.630;9.162;2022-09-16T08:18:49;96950.97;;;10.30;100.00
498;BME280;39559;48.630;9.162;2022-09-16T08:21:18;96962.66;;;10.38;100.00
498;BME280;39559;48.630;9.162;2022-09-16T08:23:44;96958.00;;;10.45;100.00
498;BME280;39559;48.630;9.162;2022-09-16T08:26:11;96956.94;;;10.49;100.00
498;BME280;39559;48.630;9.162;2022-09-16T08:30:27;96947.00;;;10.57;100.00
498;BME280;39559;48.630;9.162;2022-09-16T08:32:57;96949.06;;;10.68;100.00
498;BME280;39559;48.630;9.162;2022-09-16T08:35:23;96953.72;;;10.62;100.00
498;BME280;39559;48.630;9.162;2022-09-16T08:37:50;96958.59;;;10.68;100.00
498;BME280;39559;48.630;9.162;2022-09-16T08:40:22;96965.25;;;10.56;100.00
498;BME280;39559;48.630;9.162;2022-09-16T08:50:53;96979.25;;;10.87;100.00
498;BME280;39559;48.630;9.162;2022-09-16T08:54:31;96985.13;;;10.90;100.00
498;BME280;39559;48.630;9.162;2022-09-16T08:57:01;96984.81;;;10.97;100.00
498;BME280;39559;48.630;9.162;2022-09-16T08:59:33;96977.00;;;10.81;100.00
498;BME280;39559;48.630;9.162;2022-09-16T09:04:25;96982.38;;;10.93;100.00
498;BME280;39559;48.630;9.162;2022-09-16T09:13:02;96980.97;;;11.04;100.00
498;BME280;39559;48.630;9.162;2022-09-16T09:18:43;96981.16;;;11.01;100.00
498;BME280;39559;48.630;9.162;2022-09-16T09:26:27;96991.44;;;11.02;100.00
498;BME280;39559;48.630;9.162;2022-09-16T09:42:30;96975.22;;;11.14;100.00
498;BME280;39559;48.630;9.162;2022-09-16T09:47:42;96968.56;;;11.09;100.00
498;BME280;39559;48.630;9.162;2022-09-16T09:55:33;96954.66;;;10.94;100.00
498;BME280;39559;48.630;9.162;2022-09-16T10:00:38;96958.19;;;11.09;100.00
498;BME280;39559;48.630;9.162;2022-09-16T10:03:12;96957.59;;;11.04;100.00
498;BME280;39559;48.630;9.162;2022-09-16T10:06:24;96965.56;;;11.17;100.00
498;BME280;39559;48.630;9.162;2022-09-16T10:08:51;96971.44;;;11.20;100.00
498;BME280;39559;48.630;9.162;2022-09-16T10:11:24;96968.25;;;11.31;100.00
498;BME280;39559;48.630;9.162;2022-09-16T10:13:52;96965.09;;;11.42;100.00
498;BME280;39559;48.630;9.162;2022-09-16T10:16:23;96968.88;;;11.68;100.00
498;BME280;39559;48.630;9.162;2022-09-16T10:19:20;96965.31;;;11.85;100.00
498;BME280;39559;48.630;9.162;2022-09-16T10:21:48;96956.59;;;12.02;100.00
498;BME280;39559;48.630;9.162;2022-09-16T10:24:28;96958.88;;;12.08;100.00
498;BME280;39559;48.630;9.162;2022-09-16T10:26:55;96953.47;;;12.11;100.00
498;BME280;39559;48.630;9.162;2022-09-16T10:30:21;96955.16;;;12.12;100.00
498;BME280;39559;48.630;9.162;2022-09-16T10:32:52;96959.56;;;11.96;100.00
498;BME280;39559;48.630;9.162;2022-09-16T10:35:26;96952.41;;;11.83;100.00
498;BME280;39559;48.630;9.162;2022-09-16T10:37:57;96953.91;;;12.03;100.00
498;BME280;39559;48.630;9.162;2022-09-16T10:40:24;96954.78;;;12.18;100.00
498;BME280;39559;48.630;9.162;2022-09-16T10:42:51;96957.75;;;12.12;100.00
498;BME280;39559;48.630;9.162;2022-09-16T10:47:49;96970.78;;;12.12;100.00
498;BME280;39559;48.630;9.162;2022-09-16T10:50:17;96971.22;;;12.04;100.00
498;BME280;39559;48.630;9.162;2022-09-16T10:54:26;96972.47;;;11.81;100.00
498;BME280;39559;48.630;9.162;2022-09-16T10:56:53;96969.03;;;11.65;100.00
498;BME280;39559;48.630;9.162;2022-09-16T10:59:18;96971.22;;;11.57;100.00
498;BME280;39559;48.630;9.162;2022-09-16T11:02:07;96968.59;;;11.72;100.00
498;BME280;39559;48.630;9.162;2022-09-16T11:05:02;96964.22;;;11.73;100.00
498;BME280;39559;48.630;9.162;2022-09-16T11:10:10;96969.19;;;11.62;100.00
498;BME280;39559;48.630;9.162;2022-09-16T11:42:21;96982.91;;;11.97;100.00
498;BME280;39559;48.630;9.162;2022-09-16T11:45:05;96977.69;;;11.97;100.00
498;BME280;39559;48.630;9.162;2022-09-16T11:50:55;96978.63;;;12.26;100.00
498;BME280;39559;48.630;9.162;2022-09-16T11:56:03;96974.97;;;12.45;100.00
498;BME280;39559;48.630;9.162;2022-09-16T11:58:40;96981.97;;;12.28;100.00
498;BME280;39559;48.630;9.162;2022-09-16T12:06:13;96974.16;;;12.28;100.00
498;BME280;39559;48.630;9.162;2022-09-16T12:09:13;96962.47;;;12.36;100.00
498;BME280;39559;48.630;9.162;2022-09-16T12:11:45;96962.75;;;12.45;100.00
498;BME280;39559;48.630;9.162;2022-09-16T12:14:36;96964.59;;;12.74;100.00
498;BME280;39559;48.630;9.162;2022-09-16T12:17:17;96956.31;;;12.96;100.00
498;BME280;39559;48.630;9.162;2022-09-16T12:22:40;96965.13;;;13.51;100.00
498;BME280;39559;48.630;9.162;2022-09-16T12:35:33;96959.63;;;13.55;100.00
498;BME280;39559;48.630;9.162;2022-09-16T12:38:01;96956.31;;;13.39;100.00
498;BME280;39559;48.630;9.162;2022-09-16T12:40:36;96958.34;;;13.48;100.00
498;BME280;39559;48.630;9.162;2022-09-16T12:57:23;96968.09;;;12.73;100.00
498;BME280;39559;48.630;9.162;2022-09-16T13:00:00;96958.81;;;12.83;100.00
498;BME280;39559;48.630;9.162;2022-09-16T13:02:34;96954.19;;;12.88;100.00
498;BME280;39559;48.630;9.162;2022-09-16T13:05:27;96943.19;;;12.97;100.00
498;BME280;39559;48.630;9.162;2022-09-16T13:07:56;96949.31;;;13.11;100.00
498;BME280;39559;48.630;9.162;2022-09-16T13:12:56;96946.63;;;13.27;100.00
498;BME280;39559;48.630;9.162;2022-09-16T13:20:47;96950.22;;;13.24;100.00
498;BME280;39559;48.630;9.162;2022-09-16T13:23:21;96943.47;;;13.36;100.00
498;BME280;39559;48.630;9.162;2022-09-16T13:25:56;96939.72;;;13.25;100.00
498;BME280;39559;48.630;9.162;2022-09-16T13:33:45;96926.59;;;14.49;100.00
498;BME280;39559;48.630;9.162;2022-09-16T13:39:01;96930.34;;;14.32;100.00
498;BME280;39559;48.630;9.162;2022-09-16T13:42:28;96925.31;;;14.42;100.00
498;BME280;39559;48.630;9.162;2022-09-16T13:44:54;96932.94;;;14.32;99.66
498;BME280;39559;48.630;9.162;2022-09-16T13:47:47;96929.19;;;14.36;97.56
498;BME280;39559;48.630;9.162;2022-09-16T13:50:15;96922.81;;;14.53;94.60
498;BME280;39559;48.630;9.162;2022-09-16T13:52:43;96918.28;;;14.16;89.68
498;BME280;39559;48.630;9.162;2022-09-16T13:55:24;96923.88;;;14.37;91.83
498;BME280;39559;48.630;9.162;2022-09-16T14:06:08;96921.47;;;14.98;86.85
498;BME280;39559;48.630;9.162;2022-09-16T14:11:40;96917.38;;;14.43;88.86
498;BME280;39559;48.630;9.162;2022-09-16T14:14:14;96916.81;;;14.12;91.29
498;BME280;39559;48.630;9.162;2022-09-16T14:16:42;96917.63;;;14.00;93.96
498;BME280;39559;48.630;9.162;2022-09-16T14:19:27;96918.47;;;14.13;92.84
498;BME280;39559;48.630;9.162;2022-09-16T14:22:19;96903.66;;;14.14;98.04
498;BME280;39559;48.630;9.162;2022-09-16T14:24:51;96913.41;;;13.85;92.68
498;BME280;39559;48.630;9.162;2022-09-16T14:29:59;96908.09;;;13.59;94.40
498;BME280;39559;48.630;9.162;2022-09-16T14:32:27;96907.16;;;13.60;94.66
498;BME280;39559;48.630;9.162;2022-09-16T14:34:55;96910.28;;;13.92;91.24
498;BME280;39559;48.630;9.162;2022-09-16T14:37:24;96909.13;;;13.56;91.98
498;BME280;39559;48.630;9.162;2022-09-16T14:39:53;96910.94;;;13.69;92.38
498;BME280;39559;48.630;9.162;2022-09-16T14:42:20;96897.94;;;13.81;90.58
498;BME280;39559;48.630;9.162;2022-09-16T14:44:54;96898.78;;;13.82;88.07
498;BME280;39559;48.630;9.162;2022-09-16T14:47:22;96905.66;;;14.10;94.38
498;BME280;39559;48.630;9.162;2022-09-16T14:49:51;96906.38;;;14.12;90.08
498;BME280;39559;48.630;9.162;2022-09-16T14:53:56;96889.75;;;14.13;92.28
498;BME280;39559;48.630;9.162;2022-09-16T14:56:22;96891.97;;;14.19;91.18
498;BME280;39559;48.630;9.162;2022-09-16T14:58:49;96903.06;;;14.36;88.81
498;BME280;39559;48.630;9.162;2022-09-16T15:01:26;96890.72;;;14.38;87.81
498;BME280;39559;48.630;9.162;2022-09-16T15:04:02;96901.50;;;14.46;90.64
498;BME280;39559;48.630;9.162;2022-09-16T15:06:34;96895.75;;;14.54;89.26
498;BME280;39559;48.630;9.162;2022-09-16T15:09:23;96894.69;;;14.31;91.71
498;BME280;39559;48.630;9.162;2022-09-16T15:11:55;96890.00;;;14.49;90.52
498;BME280;39559;48.630;9.162;2022-09-16T15:14:22;96894.91;;;14.53;87.86
498;BME280;39559;48.630;9.162;2022-09-16T15:18:21;96881.53;;;14.96;87.30
498;BME280;39559;48.630;9.162;2022-09-16T15:21:17;96884.69;;;14.89;88.01
498;BME280;39559;48.630;9.162;2022-09-16T15:23:49;96887.94;;;14.80;83.17
498;BME280;39559;48.630;9.162;2022-09-16T15:26:25;96885.50;;;14.51;79.86
498;BME280;39559;48.630;9.162;2022-09-16T15:29:02;96893.03;;;14.30;83.29
498;BME280;39559;48.630;9.162;2022-09-16T15:33:57;96886.31;;;14.26;85.43
498;BME280;39559;48.630;9.162;2022-09-16T15:36:36;96878.56;;;14.11;88.58
498;BME280;39559;48.630;9.162;2022-09-16T15:39:03;96886.81;;;14.05;88.42
498;BME280;39559;48.630;9.162;2022-09-16T15:41:44;96898.38;;;13.88;90.77
498;BME280;39559;48.630;9.162;2022-09-16T15:44:24;96880.47;;;14.09;88.72
498;BME280;39559;48.630;9.162;2022-09-16T15:46:51;96888.53;;;14.19;90.68
498;BME280;39559;48.630;9.162;2022-09-16T15:49:17;96881.63;;;14.18;91.83
498;BME280;39559;48.630;9.162;2022-09-16T15:51:46;96887.97;;;14.01;91.90
498;BME280;39559;48.630;9.162;2022-09-16T15:54:32;96891.56;;;13.86;88.19
498;BME280;39559;48.630;9.162;2022-09-16T15:57:02;96880.31;;;13.85;88.42
498;BME280;39559;48.630;9.162;2022-09-16T16:02:28;96889.19;;;13.82;92.92
498;BME280;39559;48.630;9.162;2022-09-16T16:05:49;96890.56;;;13.61;86.77
498;BME280;39559;48.630;9.162;2022-09-16T16:08:48;96892.22;;;13.62;87.81
498;BME280;39559;48.630;9.162;2022-09-16T16:11:17;96887.56;;;13.40;90.67
498;BME280;39559;48.630;9.162;2022-09-16T16:13:44;96884.94;;;13.40;90.18
498;BME280;39559;48.630;9.162;2022-09-16T16:16:11;96890.41;;;13.50;88.42
498;BME280;39559;48.630;9.162;2022-09-16T16:18:38;96891.50;;;13.60;86.59
498;BME280;39559;48.630;9.162;2022-09-16T16:21:13;96891.22;;;13.65;87.41
498;BME280;39559;48.630;9.162;2022-09-16T16:23:39;96892.53;;;13.57;90.73
498;BME280;39559;48.630;9.162;2022-09-16T16:26:08;96898.09;;;13.66;91.16
498;BME280;39559;48.630;9.162;2022-09-16T16:29:38;96894.97;;;13.73;87.26
498;BME280;39559;48.630;9.162;2022-09-16T16:32:06;96904.53;;;13.60;87.96
498;BME280;39559;48.630;9.162;2022-09-16T16:34:35;96902.75;;;13.60;89.33
498;BME280;39559;48.630;9.162;2022-09-16T16:37:01;96899.91;;;13.51;87.51
498;BME280;39559;48.630;9.162;2022-09-16T16:39:27;96905.31;;;13.48;89.88
498;BME280;39559;48.630;9.162;2022-09-16T16:41:53;96901.63;;;13.37;89.14
498;BME280;39559;48.630;9.162;2022-09-16T16:44:20;96914.38;;;13.13;96.86
498;BME280;39559;48.630;9.162;2022-09-16T16:46:50;96912.09;;;13.09;96.80
498;BME280;39559;48.630;9.162;2022-09-16T16:49:17;96909.47;;;13.09;93.15
498;BME280;39559;48.630;9.162;2022-09-16T16:53:35;96900.84;;;12.94;94.98
498;BME280;39559;48.630;9.162;2022-09-16T16:56:06;96904.09;;;12.83;97.09
498;BME280;39559;48.630;9.162;2022-09-16T16:58:34;96914.03;;;12.62;99.86
498;BME280;39559;48.630;9.162;2022-09-16T17:01:14;96912.66;;;12.56;100.00
498;BME280;39559;48.630;9.162;2022-09-16T17:03:41;96904.91;;;12.40;100.00
498;BME280;39559;48.630;9.162;2022-09-16T17:06:09;96912.06;;;12.37;100.00
498;BME280;39559;48.630;9.162;2022-09-16T17:08:35;96910.75;;;12.29;100.00
498;BME280;39559;48.630;9.162;2022-09-16T17:11:11;96912.03;;;12.22;99.13
498;BME280;39559;48.630;9.162;2022-09-16T17:13:41;96915.28;;;12.12;100.00
498;BME280;39559;48.630;9.162;2022-09-16T17:17:32;96914.78;;;12.05;100.00
498;BME280;39559;48.630;9.162;2022-09-16T17:19:57;96917.03;;;12.11;100.00
498;BME280;39559;48.630;9.162;2022-09-16T17:22:23;96918.31;;;12.04;100.00
498;BME280;39559;48.630;9.162;2022-09-16T17:24:49;96918.22;;;11.89;100.00
498;BME280;39559;48.630;9.162;2022-09-16T17:27:14;96917.53;;;11.71;100.00
498;BME280;39559;48.630;9.162;2022-09-16T17:29:44;96915.25;;;11.65;100.00
498;BME280;39559;48.630;9.162;2022-09-16T17:32:09;96915.84;;;11.55;100.00
498;BME280;39559;48.630;9.162;2022-09-16T17:34:34;96915.97;;;11.37;100.00
498;BME280;39559;48.630;9.162;2022-09-16T17:37:00;96911.59;;;11.38;100.00
498;BME280;39559;48.630;9.162;2022-09-16T17:41:29;96916.78;;;11.22;100.00